• Join FlightAware (Why Join?)
  • Login
  • US Flag 
01:54PM EDT


 

Airport Tracker/Info


-or-


 

Live Flight TrackerFlight Track Log ✈ N517MD ✈ 16-Sep-2013 ✈ KORL - MMTO / TLC

Flight Track Log - Related Links

Times and Time Zones

All times are in EDT time to prevent confusion due to time zone crossing. See the N517MD flight status page for this flight to view local times or setup timezone preferences in your user account.

Time Position Orientation Groundspeed Altitude Reporting Facility
EDT Latitude Longitude Course Direction KTS MPH feet Rate Location/Type
03:34PM 28.5500 -81.3167 41° Northeast 163 188 900  Level Orlando TRACON
03:35PM 28.5833 -81.2833 41° Northeast 180 207 2,200 480 Climbing Orlando TRACON
03:36PM 28.5833 -81.2167 90° East 172 198 2,000 480 Descending Orlando TRACON
03:37PM 28.5500 -81.1667 127° Southeast 235 270 3,300 1,020 Climbing Orlando TRACON
03:38PM 28.5000 -81.1667 180° South 220 253 4,000 360 Climbing Orlando TRACON
03:39PM 28.4667 -81.2333 240° Southwest 233 268 4,000 780 Level Orlando TRACON
03:40PM 28.4667 -81.3167 270° West 269 310 5,600 1,680 Climbing Orlando TRACON
03:41PM 28.4500 -81.4000 257° West 271 312 7,600 1,980 Climbing Orlando TRACON
03:42PM 28.4667 -81.4833 283° West 279 321 9,600 1,980 Climbing Orlando TRACON
03:43PM 28.4833 -81.5667 283° West 274 315 11,600 1,800 Climbing Orlando TRACON
03:45PM 28.4414 -81.7689 257° West 286 329 15,700 1,560 Climbing Jacksonville Center
03:46PM 28.4192 -81.8636 255° West 293 337 16,900 1,200 Climbing Jacksonville Center
03:47PM 28.3947 -81.9558 253° West 298 343 18,100 1,260 Climbing Jacksonville Center
03:48PM 28.3683 -82.0528 253° West 311 358 19,500 1,320 Climbing Jacksonville Center
03:49PM 28.3419 -82.1497 253° West 322 371 20,800 1,140 Climbing Jacksonville Center
03:50PM 28.3194 -82.2442 255° West 322 371 21,900 1,020 Climbing Jacksonville Center
03:51PM 28.2906 -82.3433 252° West 322 371 22,900 900 Climbing Jacksonville Center
03:52PM 28.2639 -82.4472 254° West 328 377 23,800 900 Climbing Jacksonville Center
03:53PM 28.2372 -82.5461 253° West 333 383 24,800 900 Climbing Jacksonville Center
03:54PM 28.2103 -82.6522 254° West 338 389 25,700 900 Climbing Jacksonville Center
03:55PM 28.1833 -82.7561 254° West 344 396 26,700 960 Climbing Jacksonville Center
03:57PM 28.1200 -82.9833 253° West 343 395 28,800 900 Climbing Miami Center
03:58PM 28.0925 -83.0900 254° West 354 407 29,700 600 Climbing Miami Center
03:59PM 28.0625 -83.2011 253° West 360 414 30,000 180 Climbing Miami Center
04:00PM 28.0281 -83.3192 252° West 375 432 30,100 480 Climbing Miami Center
04:01PM 27.9956 -83.4347 252° West 388 447 31,000 900 Climbing Miami Center
04:02PM 27.9553 -83.5450 248° West 388 447 31,900 900 Climbing Miami Center
04:03PM 27.9144 -83.6578 248° West 393 452 32,800 720 Climbing Miami Center
04:04PM 27.8694 -83.7700 246° West 393 452 33,400 600 Climbing Miami Center
04:05PM 27.8000 -83.8667 231° Southwest 388 447 34,100 660 Climbing Miami Center
04:06PM 27.7269 -83.9533 226° Southwest 404 465 34,800 600 Climbing Miami Center
04:07PM 27.6536 -84.0450 228° Southwest 399 459 35,400 600 Climbing Miami Center
04:08PM 27.5803 -84.1361 228° Southwest 399 459 36,000 540 Climbing Miami Center
04:09PM 27.5028 -84.2272 226° Southwest 399 459 36,500 420 Climbing Miami Center
04:10PM 27.4292 -84.3206 228° Southwest 399 459 36,900 300 Climbing Miami Center
04:11PM 27.3511 -84.4158 227° Southwest 404 465 37,100 180 Climbing Miami Center
04:12PM 27.2692 -84.5086 225° Southwest 410 472 37,300 180 Climbing Miami Center
04:13PM 27.1931 -84.6083 229° Southwest 416 479 37,500 180 Climbing Miami Center
04:15PM 27.0853 -84.7422 228° Southwest 429 494 37,800 180 Climbing Houston Center
04:16PM 26.9858 -84.8617 227° Southwest 437 503 38,000 60 Climbing Houston Center
04:17PM 26.9042 -84.9625 228° Southwest 437 503 38,000  Level Houston Center
04:18PM 26.8214 -85.0625 227° Southwest 439 505 38,000  Level Houston Center
04:19PM 26.7381 -85.1619 227° Southwest 440 506 38,000  Level Houston Center
04:20PM 26.6547 -85.2633 227° Southwest 443 510 38,000  Level Houston Center
04:21PM 26.5711 -85.3622 227° Southwest 439 505 38,000  Level Houston Center
04:22PM 26.4886 -85.4600 227° Southwest 434 499 38,000  Level Houston Center
04:23PM 26.3900 -85.5781 227° Southwest 434 499 38,000  Level Houston Center
04:24PM 26.3078 -85.6750 227° Southwest 432 497 38,000  Level Houston Center
04:25PM 26.2250 -85.7717 226° Southwest 432 497 38,000  Level Houston Center
04:26PM 26.1447 -85.8697 228° Southwest 429 494 38,000 -60 Level Houston Center
04:27PM 26.0628 -85.9656 226° Southwest 428 493 37,900  Descending Houston Center
04:28PM 25.9881 -86.0694 231° Southwest 430 495 38,000 60 Climbing Houston Center
04:30PM 25.8937 -86.2010 231° Southwest  Level FlightAware Approximate
04:37PM 25.4295 -86.8632 235° Southwest  Level FlightAware Approximate
04:38PM 25.3629 -86.9574 231° Southwest  Level FlightAware Approximate
04:39PM 25.2951 -87.0505 231° Southwest  Level FlightAware Approximate
04:40PM 25.2305 -87.1462 234° Southwest  Level FlightAware Approximate
04:41PM 25.1664 -87.2424 234° Southwest  Level FlightAware Approximate
04:42PM 25.1023 -87.3385 234° Southwest  Level FlightAware Approximate
04:43PM 25.0374 -87.4338 231° Southwest  Level FlightAware Approximate
04:44PM 24.9692 -87.5263 231° Southwest  Level FlightAware Approximate
04:45PM 24.9009 -87.6187 231° Southwest  Level FlightAware Approximate
04:46PM 24.8326 -87.7110 231° Southwest  Level FlightAware Approximate
04:47PM 24.7644 -87.8034 234° Southwest  Level FlightAware Approximate
04:48PM 24.7006 -87.8994 234° Southwest  Level FlightAware Approximate
04:49PM 24.6367 -87.9953 234° Southwest  Level FlightAware Approximate
04:50PM 24.5728 -88.0911 234° Southwest  Level FlightAware Approximate
04:51PM 24.5088 -88.1868 234° Southwest  Level FlightAware Approximate
04:52PM 24.4566 -88.2906 242° Southwest  Level FlightAware Approximate
04:53PM 24.4063 -88.3957 242° Southwest  Level FlightAware Approximate
04:54PM 24.3559 -88.5006 242° Southwest  Level FlightAware Approximate
04:55PM 24.3054 -88.6055 242° Southwest  Level FlightAware Approximate
04:56PM 24.2568 -88.7113 243° Southwest  Level FlightAware Approximate
04:57PM 24.2083 -88.8172 243° Southwest  Level FlightAware Approximate
04:58PM 24.1597 -88.9230 243° Southwest  Level FlightAware Approximate
04:59PM 24.1110 -89.0288 243° Southwest  Level FlightAware Approximate
05:00PM 24.0619 -89.1342 243° Southwest  Level FlightAware Approximate
05:01PM 24.0128 -89.2396 243° Southwest  Level FlightAware Approximate
05:02PM 23.9635 -89.3449 243° Southwest  Level FlightAware Approximate
05:03PM 23.9142 -89.4501 243° Southwest  Level FlightAware Approximate
05:04PM 23.8648 -89.5552 243° Southwest  Level FlightAware Approximate
05:05PM 23.8154 -89.6602 243° Southwest  Level FlightAware Approximate
05:06PM 23.7658 -89.7652 243° Southwest  Level FlightAware Approximate
05:07PM 23.7162 -89.8701 243° Southwest  Level FlightAware Approximate
05:08PM 23.6666 -89.9749 243° Southwest  Level FlightAware Approximate
05:09PM 23.6168 -90.0796 243° Southwest  Level FlightAware Approximate
05:10PM 23.5669 -90.1842 242° Southwest  Level FlightAware Approximate
05:11PM 23.5165 -90.2885 242° Southwest  Level FlightAware Approximate
05:12PM 23.4661 -90.3927 242° Southwest  Level FlightAware Approximate
05:13PM 23.4156 -90.4968 242° Southwest  Level FlightAware Approximate
05:14PM 23.3651 -90.6009 242° Southwest  Level FlightAware Approximate
05:15PM 23.3145 -90.7049 242° Southwest  Level FlightAware Approximate
05:16PM 23.2638 -90.8088 242° Southwest  Level FlightAware Approximate
05:17PM 23.2131 -90.9126 242° Southwest  Level FlightAware Approximate
05:18PM 23.1622 -91.0164 242° Southwest  Level FlightAware Approximate
05:19PM 23.1113 -91.1200 242° Southwest  Level FlightAware Approximate
05:20PM 23.0604 -91.2236 242° Southwest  Level FlightAware Approximate
05:21PM 23.0094 -91.3271 242° Southwest  Level FlightAware Approximate
05:22PM 22.9583 -91.4306 242° Southwest  Level FlightAware Approximate
05:23PM 22.9071 -91.5339 242° Southwest  Level FlightAware Approximate
05:24PM 22.8559 -91.6372 242° Southwest  Level FlightAware Approximate
05:25PM 22.8046 -91.7404 242° Southwest  Level FlightAware Approximate
05:26PM 22.7532 -91.8435 242° Southwest  Level FlightAware Approximate
05:27PM 22.7018 -91.9466 242° Southwest  Level FlightAware Approximate
05:28PM 22.6503 -92.0496 242° Southwest  Level FlightAware Approximate
05:29PM 22.5988 -92.1524 242° Southwest  Level FlightAware Approximate
05:30PM 22.5478 -92.2556 242° Southwest  Level FlightAware Approximate
05:31PM 22.4968 -92.3587 242° Southwest  Level FlightAware Approximate
05:32PM 22.4457 -92.4618 242° Southwest  Level FlightAware Approximate
05:33PM 22.3945 -92.5647 242° Southwest  Level FlightAware Approximate
05:34PM 22.3432 -92.6676 242° Southwest  Level FlightAware Approximate
05:35PM 22.2919 -92.7704 242° Southwest  Level FlightAware Approximate
05:36PM 22.2406 -92.8732 242° Southwest  Level FlightAware Approximate
05:37PM 22.1891 -92.9758 242° Southwest  Level FlightAware Approximate
05:38PM 22.1376 -93.0784 242° Southwest  Level FlightAware Approximate
05:39PM 22.0861 -93.1809 242° Southwest  Level FlightAware Approximate
05:40PM 22.0344 -93.2833 241° Southwest  Level FlightAware Approximate
05:41PM 21.9827 -93.3857 241° Southwest  Level FlightAware Approximate
05:42PM 21.9310 -93.4880 241° Southwest  Level FlightAware Approximate
05:43PM 21.8790 -93.5900 241° Southwest  Level FlightAware Approximate
05:44PM 21.8269 -93.6920 241° Southwest  Level FlightAware Approximate
05:45PM 21.7747 -93.7940 241° Southwest  Level FlightAware Approximate
05:46PM 21.7225 -93.8958 241° Southwest  Level FlightAware Approximate
05:47PM 21.6702 -93.9976 241° Southwest  Level FlightAware Approximate
05:48PM 21.6179 -94.0993 241° Southwest  Level FlightAware Approximate
05:49PM 21.5655 -94.2010 241° Southwest  Level FlightAware Approximate
05:50PM 21.5130 -94.3025 241° Southwest  Level FlightAware Approximate
05:51PM 21.4604 -94.4040 241° Southwest  Level FlightAware Approximate
05:52PM 21.4079 -94.5054 241° Southwest  Level FlightAware Approximate
05:53PM 21.3552 -94.6068 241° Southwest  Level FlightAware Approximate
05:54PM 21.3025 -94.7081 241° Southwest  Level FlightAware Approximate
05:55PM 21.2497 -94.8093 241° Southwest  Level FlightAware Approximate
05:56PM 21.1969 -94.9104 241° Southwest  Level FlightAware Approximate
05:57PM 21.1442 -95.0116 242° Southwest  Level FlightAware Approximate
05:58PM 21.0932 -95.1137 242° Southwest  Level FlightAware Approximate
05:59PM 21.0422 -95.2158 242° Southwest  Level FlightAware Approximate
06:00PM 21.0054 -95.3234 258° West  Level FlightAware Approximate
06:01PM 20.9830 -95.4366 258° West  Level FlightAware Approximate
06:02PM 20.9604 -95.5498 258° West  Level FlightAware Approximate
06:03PM 20.9378 -95.6629 258° West  Level FlightAware Approximate
06:04PM 20.9151 -95.7760 258° West  Level FlightAware Approximate
06:05PM 20.8923 -95.8891 258° West  Level FlightAware Approximate
06:06PM 20.8702 -96.0024 259° West  Level FlightAware Approximate
06:07PM 20.8487 -96.1157 259° West  Level FlightAware Approximate
06:08PM 20.8270 -96.2290 258° West  Level FlightAware Approximate
06:09PM 20.8053 -96.3422 258° West  Level FlightAware Approximate
06:10PM 20.7835 -96.4554 258° West  Level FlightAware Approximate
06:11PM 20.7616 -96.5686 258° West  Level FlightAware Approximate
06:12PM 20.7397 -96.6817 258° West  Level FlightAware Approximate
06:13PM 20.7177 -96.7949 258° West  Level FlightAware Approximate
06:14PM 20.6974 -96.9083 259° West  Level FlightAware Approximate
06:15PM 20.6772 -97.0218 259° West  Level FlightAware Approximate
06:16PM 20.6568 -97.1352 259° West  Level FlightAware Approximate
06:17PM 20.6364 -97.2486 259° West  Level FlightAware Approximate
06:18PM 20.6159 -97.3620 259° West  Level FlightAware Approximate
06:19PM 20.5896 -97.4734 245° Southwest  Level FlightAware Approximate
06:20PM 20.5433 -97.5776 245° Southwest  Level FlightAware Approximate
06:21PM 20.5018 -97.6841 248° West  Level FlightAware Approximate
06:22PM 20.4617 -97.7912 248° West  Level FlightAware Approximate
06:23PM 20.4267 -97.8992 246° West  Level FlightAware Approximate
06:24PM 20.3825 -98.0044 246° West  Level FlightAware Approximate
06:25PM 20.3382 -98.1095 246° West  Level FlightAware Approximate
06:26PM 20.2961 -98.2155 255° West  Level FlightAware Approximate
06:27PM 20.2605 -98.3239 247° West  Level FlightAware Approximate
06:28PM 20.2181 -98.4299 247° West  Level FlightAware Approximate
06:29PM 20.1757 -98.5358 247° West  Level FlightAware Approximate
06:30PM 20.1333 -98.6417 247° West  Level FlightAware Approximate
06:31PM 20.0573 -98.7130 205° Southwest  Level FlightAware Approximate
06:32PM 19.9601 -98.7632 206° Southwest  Level FlightAware Approximate
06:33PM 19.8633 -98.8142 206° Southwest  Level FlightAware Approximate
06:34PM 19.7664 -98.8651 206° Southwest  Level FlightAware Approximate
06:35PM 19.6707 -98.9183 210° Southwest  Level FlightAware Approximate
06:36PM 19.5776 -98.9765 210° Southwest  Level FlightAware Approximate
06:37PM 19.4845 -99.0347 211° Southwest  Level FlightAware Approximate
06:38PM 19.4209 -99.1166 255° West  Level FlightAware Approximate
06:39PM 19.3993 -99.2288 259° West  Level FlightAware Approximate
06:40PM 19.3833 -99.3418 270° West  Level FlightAware Approximate
06:41PM 19.3667 -99.4533 270° West  Level FlightAware Approximate
06:42PM 19.3501 -99.5660 258° West  Level FlightAware Approximate
06:43PM 19.3500 -99.5667 North  Level FlightAware Approximate
06:44PM 19.3371 -99.5660 North  Level Estimated
06:45PM 19.3371 -99.5660 North  Level Estimated
06:46PM 19.3371 -99.5660 North  Level Estimated
06:47PM 19.3371 -99.5660 North  Level Estimated
06:48PM 19.3371 -99.5660 North  Level Estimated
06:49PM 19.3371 -99.5660 North  Level Estimated
06:50PM 19.3371 -99.5660 North  Level Estimated